Time;durP1;ratioP1;P1;durP2;ratioP2;P2;SDS_P1;SDS_P2;PMS_P1;PMS_P2;Temp;Humidity;BMP_temperature;BMP_pressure;BME280_temperature;BME280_humidity;BME280_pressure;Samples;Min_cycle;Max_cycle;Signal;HPM_P1;HPM_P2
2021/09/07 00:01:43;;;;;;;10.10;9.00;;;;;;;;;;4978051;28;20505;-87
2021/09/07 00:04:11;;;;;;;11.27;8.90;;;;;;;;;;4978233;28;20461;-87
2021/09/07 00:06:38;;;;;;;8.63;7.73;;;;;;;;;;4977926;28;20481;-86
2021/09/07 00:09:05;;;;;;;10.33;8.43;;;;;;;;;;4977550;28;20505;-87
2021/09/07 00:11:32;;;;;;;13.40;9.33;;;;;;;;;;4977932;28;20455;-87
2021/09/07 00:13:59;;;;;;;10.43;8.40;;;;;;;;;;4977946;28;20461;-87
2021/09/07 00:16:28;;;;;;;9.03;7.80;;;12.60;99.90;;;;;;4977875;28;20446;-87
2021/09/07 00:18:55;;;;;;;10.17;8.50;;;;;;;;;;4977740;28;20473;-87
2021/09/07 00:21:22;;;;;;;10.13;9.07;;;;;;;;;;4978057;28;20490;-86
2021/09/07 00:23:49;;;;;;;9.53;8.63;;;;;;;;;;4977373;28;20458;-87
2021/09/07 00:26:17;;;;;;;10.87;8.80;;;;;;;;;;4978213;28;20449;-86
2021/09/07 00:28:44;;;;;;;12.00;8.03;;;;;;;;;;4976575;28;20454;-86
2021/09/07 00:31:11;;;;;;;10.43;8.83;;;;;;;;;;4977080;28;20462;-86
2021/09/07 00:33:39;;;;;;;13.03;9.10;;;12.50;99.90;;;;;;4977523;28;20464;-88
2021/09/07 00:36:06;;;;;;;11.90;9.40;;;;;;;;;;4977334;28;20452;-88
2021/09/07 00:38:34;;;;;;;10.03;9.03;;;;;;;;;;4977156;28;20457;-87
2021/09/07 00:41:01;;;;;;;9.60;8.70;;;;;;;;;;4976800;28;20498;-87
2021/09/07 00:43:28;;;;;;;9.70;8.70;;;;;;;;;;4976054;28;20450;-87
2021/09/07 00:45:55;;;;;;;12.90;9.10;;;;;;;;;;4976895;28;20465;-86
2021/09/07 00:48:22;;;;;;;12.33;9.10;;;;;;;;;;4976645;28;20818;-86
2021/09/07 00:50:51;;;;;;;10.00;9.00;;;12.30;99.90;;;;;;4977033;28;20827;-87
2021/09/07 00:53:18;;;;;;;10.87;9.00;;;;;;;;;;4976453;28;20957;-87
2021/09/07 00:55:45;;;;;;;9.67;8.50;;;;;;;;;;4978107;28;20465;-87
2021/09/07 00:58:14;;;;;;;9.87;8.57;;;12.30;99.90;;;;;;4977383;28;20473;-86
2021/09/07 01:00:42;;;;;;;11.80;8.23;;;;;;;;;;4977395;28;20481;-87
2021/09/07 01:03:09;;;;;;;10.70;8.43;;;;;;;;;;4977332;28;20985;-87
2021/09/07 01:05:37;;;;;;;10.67;9.13;;;;;;;;;;4977397;28;20892;-86
2021/09/07 01:08:05;;;;;;;9.40;8.20;;;12.20;99.90;;;;;;4977623;28;20450;-86
2021/09/07 01:10:32;;;;;;;11.13;9.00;;;;;;;;;;4975735;28;20455;-87
2021/09/07 01:13:00;;;;;;;13.03;8.90;;;;;;;;;;4976071;28;20461;-87
2021/09/07 01:15:27;;;;;;;11.77;10.00;;;;;;;;;;4978890;28;20457;-87
2021/09/07 01:17:54;;;;;;;10.97;8.93;;;;;;;;;;4976628;28;20481;-87
2021/09/07 01:20:21;;;;;;;12.50;9.20;;;;;;;;;;4977939;28;20566;-87
2021/09/07 01:22:49;;;;;;;11.10;9.57;;;;;;;;;;4979432;28;20813;-88
2021/09/07 01:25:18;;;;;;;9.57;8.50;;;12.00;99.90;;;;;;4998148;28;20511;-88
2021/09/07 01:27:46;;;;;;;10.50;8.93;;;;;;;;;;4994670;28;20451;-86
2021/09/07 01:30:14;;;;;;;10.33;9.30;;;;;;;;;;4976922;28;20790;-87
2021/09/07 01:32:42;;;;;;;12.53;9.80;;;;;;;;;;4976660;28;20447;-88
2021/09/07 01:35:09;;;;;;;10.57;8.53;;;12.00;99.90;;;;;;4976906;28;20450;-87
2021/09/07 01:37:39;;;;;;;13.00;9.23;;;12.00;99.90;;;;;;4975213;28;20501;-86
2021/09/07 01:40:08;;;;;;;11.23;9.40;;;11.80;99.90;;;;;;4975719;28;20446;-88
2021/09/07 01:42:36;;;;;;;9.47;8.47;;;11.90;99.90;;;;;;4976674;28;20458;-88
2021/09/07 01:45:03;;;;;;;11.10;9.20;;;;;;;;;;4975532;28;20960;-88
2021/09/07 01:47:30;;;;;;;10.47;9.23;;;;;;;;;;4977037;28;20457;-88
2021/09/07 01:49:57;;;;;;;12.17;9.70;;;;;;;;;;4976616;28;20546;-87
2021/09/07 01:52:25;;;;;;;10.43;8.60;;;;;;;;;;4977445;28;20453;-87
2021/09/07 01:54:52;;;;;;;10.57;9.47;;;;;;;;;;4977960;28;20457;-87
2021/09/07 01:57:19;;;;;;;11.07;8.70;;;;;;;;;;4977724;28;20437;-87
2021/09/07 01:59:48;;;;;;;16.03;8.90;;;11.80;99.90;;;;;;4975845;28;20876;-87
2021/09/07 02:02:15;;;;;;;10.40;9.10;;;;;;;;;;4976502;28;20550;-87
2021/09/07 02:04:45;;;;;;;10.40;9.20;;;;;;;;;;4976506;28;20438;-87
2021/09/07 02:07:12;;;;;;;12.00;9.60;;;;;;;;;;4976620;28;20819;-87
2021/09/07 02:09:40;;;;;;;10.40;8.77;;;11.80;99.90;;;;;;4976767;28;20822;-87
2021/09/07 02:12:08;;;;;;;10.17;9.17;;;;;;;;;;4977165;28;20450;-88
2021/09/07 02:14:35;;;;;;;10.23;8.63;;;;;;;;;;4975485;28;20807;-89
2021/09/07 02:17:03;;;;;;;9.13;8.13;;;11.70;99.90;;;;;;4976129;28;20446;-88
2021/09/07 02:19:30;;;;;;;10.50;9.03;;;;;;;;;;4976569;28;20488;-87
2021/09/07 02:21:58;;;;;;;10.90;9.13;;;;;;;;;;4978363;28;20869;-87
2021/09/07 02:24:25;;;;;;;15.73;8.50;;;;;;;;;;4980130;28;20464;-88
2021/09/07 02:26:52;;;;;;;10.80;9.70;;;;;;;;;;4981054;28;20466;-88
2021/09/07 02:29:19;;;;;;;9.93;8.83;;;;;;;;;;4979109;28;20453;-87
2021/09/07 02:31:46;;;;;;;10.37;8.90;;;;;;;;;;4981704;28;20473;-88
2021/09/07 02:34:14;;;;;;;11.40;9.10;;;;;;;;;;4980458;28;20450;-87
2021/09/07 02:36:42;;;;;;;12.10;8.90;;;;;;;;;;4980225;28;20462;-87
2021/09/07 02:39:11;;;;;;;11.37;9.20;;;;;;;;;;4980349;28;20469;-87
2021/09/07 02:41:39;;;;;;;10.20;9.00;;;;;;;;;;4980389;28;20500;-87
2021/09/07 02:44:06;;;;;;;10.53;9.33;;;;;;;;;;4979280;28;20446;-87
2021/09/07 02:46:33;;;;;;;10.50;8.70;;;;;;;;;;4980331;28;20453;-87
2021/09/07 02:49:00;;;;;;;11.30;9.13;;;;;;;;;;4980199;28;20461;-87
2021/09/07 02:51:29;;;;;;;14.00;9.40;;;11.50;99.90;;;;;;4979489;28;20452;-87
2021/09/07 02:53:56;;;;;;;10.00;8.97;;;;;;;;;;4979646;28;20450;-87
2021/09/07 02:56:23;;;;;;;10.93;8.83;;;;;;;;;;4979140;28;20446;-87
2021/09/07 02:58:50;;;;;;;10.80;8.87;;;;;;;;;;4978520;28;20473;-86
2021/09/07 03:01:17;;;;;;;10.20;8.60;;;;;;;;;;4980587;28;20498;-86
2021/09/07 03:03:44;;;;;;;12.73;8.80;;;;;;;;;;4980070;28;20454;-87
2021/09/07 03:06:11;;;;;;;10.17;8.80;;;;;;;;;;4979354;28;20454;-87
2021/09/07 03:08:40;;;;;;;10.70;9.60;;;;;;;;;;4979647;28;20454;-87
2021/09/07 03:11:07;;;;;;;12.87;9.10;;;;;;;;;;4979118;28;20454;-86
2021/09/07 03:13:35;;;;;;;11.70;9.03;;;;;;;;;;4985642;28;20454;-87
2021/09/07 03:16:02;;;;;;;13.87;10.00;;;11.40;99.90;;;;;;5014523;23;20481;-87
2021/09/07 03:18:29;;;;;;;10.43;9.33;;;;;;;;;;4994472;28;20474;-87
2021/09/07 03:20:59;;;;;;;10.80;9.70;;;11.30;99.90;;;;;;5001748;23;20495;-86
2021/09/07 03:23:26;;;;;;;10.87;9.80;;;;;;;;;;4996326;28;20440;-86
2021/09/07 03:25:55;;;;;;;11.50;8.83;;;;;;;;;;4995842;28;20433;-86
2021/09/07 03:28:22;;;;;;;11.73;9.53;;;;;;;;;;4993147;28;20487;-86
2021/09/07 03:30:51;;;;;;;9.73;8.67;;;;;;;;;;4999350;23;20484;-87
2021/09/07 03:33:18;;;;;;;11.60;9.97;;;;;;;;;;4993884;28;20442;-86
2021/09/07 03:35:48;;;;;;;11.07;9.43;;;11.20;99.90;;;;;;5002858;23;20482;-86
2021/09/07 03:38:16;;;;;;;13.40;9.73;;;;;;;;;;5000534;23;20454;-86
2021/09/07 03:40:43;;;;;;;12.13;8.73;;;;;;;;;;5009386;23;20485;-87
2021/09/07 03:43:12;;;;;;;10.73;9.60;;;;;;;;;;4991603;28;20831;-87
2021/09/07 03:45:42;;;;;;;11.70;9.97;;;11.00;99.90;;;;;;5000045;23;20496;-87
2021/09/07 03:48:09;;;;;;;10.00;9.00;;;;;;;;;;4993899;28;20445;-86
2021/09/07 03:50:37;;;;;;;13.10;9.20;;;;;;;;;;4994067;28;20437;-88
2021/09/07 03:53:04;;;;;;;17.83;9.17;;;;;;;;;;4993464;28;20438;-88
2021/09/07 03:55:31;;;;;;;13.70;9.57;;;;;;;;;;4994524;28;20429;-86
2021/09/07 03:58:01;;;;;;;11.23;9.00;;;11.00;99.90;;;;;;5001232;23;20492;-86
2021/09/07 04:00:30;;;;;;;9.63;8.47;;;11.00;99.90;;;;;;4994043;28;20481;-86
2021/09/07 04:02:57;;;;;;;12.27;9.07;;;;;;;;;;4993636;28;20502;-86
2021/09/07 04:05:24;;;;;;;11.33;9.70;;;;;;;;;;4994495;28;20443;-87
2021/09/07 04:07:51;;;;;;;13.50;9.07;;;;;;;;;;4992747;28;20461;-88
2021/09/07 04:10:19;;;;;;;10.00;9.00;;;;;;;;;;4995684;28;20450;-87
2021/09/07 04:12:46;;;;;;;13.43;9.73;;;;;;;;;;4995242;28;20510;-86
2021/09/07 04:15:13;;;;;;;11.70;8.87;;;;;;;;;;4993017;28;20442;-86
2021/09/07 04:17:41;;;;;;;10.00;9.00;;;10.90;99.90;;;;;;5006199;23;20993;-86
2021/09/07 04:20:11;;;;;;;9.97;8.63;;;10.80;99.90;;;;;;5003177;23;20443;-87
2021/09/07 04:22:38;;;;;;;12.13;9.30;;;;;;;;;;4887891;23;3205823;-87
2021/09/07 04:25:05;;;;;;;11.57;9.60;;;;;;;;;;5002066;23;20234;31
2021/09/07 04:27:32;;;;;;;10.37;8.97;;;;;;;;;;4991424;28;20450;-87
2021/09/07 04:29:59;;;;;;;12.27;8.80;;;;;;;;;;4993460;28;20442;-86
2021/09/07 04:32:27;;;;;;;11.10;8.50;;;;;;;;;;4990598;28;20468;-88
2021/09/07 04:34:55;;;;;;;10.30;9.23;;;10.90;99.90;;;;;;4999328;23;20499;-88
2021/09/07 04:37:22;;;;;;;11.10;9.53;;;;;;;;;;5005862;23;20482;-87
2021/09/07 04:39:50;;;;;;;11.57;9.33;;;;;;;;;;4989382;28;20460;-86
2021/09/07 04:42:17;;;;;;;12.70;9.20;;;;;;;;;;4996096;23;20509;-88
2021/09/07 04:44:44;;;;;;;8.97;7.97;;;;;;;;;;4970834;28;20475;-87
2021/09/07 04:47:12;;;;;;;10.80;9.03;;;;;;;;;;4984337;23;20501;-86
2021/09/07 04:49:39;;;;;;;10.30;9.20;;;;;;;;;;4992593;28;20430;-93
2021/09/07 04:52:08;;;;;;;11.63;9.00;;;10.90;99.90;;;;;;4992146;28;20549;-91
2021/09/07 04:54:35;;;;;;;13.93;9.70;;;;;;;;;;4988069;28;20442;-89
2021/09/07 04:57:03;;;;;;;11.10;9.60;;;;;;;;;;4991065;28;20447;-89
2021/09/07 04:59:30;;;;;;;10.30;9.00;;;;;;;;;;4991676;28;20427;-90
2021/09/07 05:01:57;;;;;;;11.27;9.40;;;;;;;;;;4989490;28;20454;-91
2021/09/07 05:04:24;;;;;;;15.67;9.70;;;;;;;;;;4980543;28;20447;-90
2021/09/07 05:06:51;;;;;;;10.63;9.37;;;;;;;;;;5007489;23;20496;-86
2021/09/07 05:09:20;;;;;;;11.50;9.57;;;11.00;99.90;;;;;;4997230;28;20427;-86
2021/09/07 05:11:47;;;;;;;14.20;9.73;;;;;;;;;;5004652;23;20474;-87
2021/09/07 05:14:14;;;;;;;11.33;8.27;;;;;;;;;;4983744;28;20470;-87
2021/09/07 05:16:41;;;;;;;10.97;9.20;;;;;;;;;;4980125;28;20450;-88
2021/09/07 05:19:09;;;;;;;14.10;10.00;;;;;;;;;;5004844;23;20466;-87
2021/09/07 05:21:37;;;;;;;9.50;8.60;;;;;;;;;;4991850;23;20490;-88
2021/09/07 05:24:18;;;;;;;10.90;9.70;;;11.30;99.90;;;;;;5011672;23;20525;-85
2021/09/07 05:26:47;;;;;;;9.50;8.50;;;11.40;99.90;;;;;;4982941;28;20445;-87
2021/09/07 05:29:14;;;;;;;12.87;9.70;;;;;;;;;;4995227;23;20504;-87
2021/09/07 05:31:41;;;;;;;12.97;9.83;;;;;;;;;;4989986;28;20449;-87
2021/09/07 05:36:34;;;;;;;10.80;9.60;;;;;;;;;;4990812;23;20489;-88
2021/09/07 05:39:01;;;;;;;12.00;9.63;;;;;;;;;;4997918;23;20241;-87
2021/09/07 05:41:29;;;;;;;10.73;9.63;;;;;;;;;;4996031;23;20490;-87
2021/09/07 05:43:57;;;;;;;11.57;9.60;;;12.00;99.90;;;;;;4980446;28;20834;-85
2021/09/07 05:46:30;;;;;;;10.53;8.93;;;;;;;;;;4978428;28;20461;-87
2021/09/07 05:48:57;;;;;;;12.13;9.13;;;;;;;;;;4976860;28;20530;-88
2021/09/07 05:51:25;;;;;;;10.70;9.60;;;12.20;99.90;;;;;;4976087;28;20821;-87
2021/09/07 05:53:52;;;;;;;12.83;8.90;;;;;;;;;;4982528;28;20450;-88
2021/09/07 05:56:20;;;;;;;11.30;10.10;;;;;;;;;;4978143;28;20446;-87
2021/09/07 05:58:50;;;;;;;11.90;10.00;;;;;;;;;;5001671;23;20532;-87
2021/09/07 06:01:21;;;;;;;10.60;9.40;;;;;;;;;;4995540;23;20442;-87
2021/09/07 06:03:48;;;;;;;15.53;9.90;;;;;;;;;;4993007;28;20476;-88
2021/09/07 06:06:16;;;;;;;12.27;9.80;;;;;;;;;;5007352;23;20490;-90
2021/09/07 06:08:43;;;;;;;12.43;10.37;;;;;;;;;;4994447;28;20442;-87
2021/09/07 06:13:36;;;;;;;10.30;9.10;;;;;;;;;;4989373;23;20957;-86
2021/09/07 06:16:03;;;;;;;14.90;9.63;;;;;;;;;;4990497;28;20536;-87
2021/09/07 06:18:32;;;;;;;12.57;10.10;;;;;;;;;;4996091;23;20485;-87
2021/09/07 06:20:59;;;;;;;12.50;10.40;;;;;;;;;;4999090;23;20478;-88
2021/09/07 06:23:26;;;;;;;23.50;11.40;;;;;;;;;;4994900;23;20494;-88
2021/09/07 06:25:57;;;;;;;13.90;9.40;;;;;;;;;;4961852;29;20451;-88
2021/09/07 06:28:25;;;;;;;14.53;10.60;;;;;;;;;;4986804;23;20517;-94
2021/09/07 06:30:52;;;;;;;17.33;10.57;;;;;;;;;;4976618;28;20434;-87
2021/09/07 06:33:19;;;;;;;28.27;11.70;;;;;;;;;;4991813;23;20980;-87
2021/09/07 06:35:47;;;;;;;16.30;11.20;;;14.40;99.90;;;;;;5006930;28;20448;-87
2021/09/07 06:38:14;;;;;;;16.37;11.10;;;;;;;;;;5001367;28;20449;-92
2021/09/07 06:40:42;;;;;;;17.33;11.37;;;;;;;;;;4988848;28;20465;-90
2021/09/07 06:43:09;;;;;;;13.70;11.47;;;;;;;;;;4993214;28;20472;-93
2021/09/07 06:45:36;;;;;;;16.50;10.97;;;;;;;;;;4994243;28;20480;-93
2021/09/07 06:48:03;;;;;;;18.57;11.13;;;;;;;;;;4994041;28;20941;-87
2021/09/07 06:50:30;;;;;;;18.40;12.00;;;;;;;;;;4991113;28;20480;-91
2021/09/07 06:52:59;;;;;;;24.43;11.80;;;15.70;99.90;;;;;;4993914;28;20528;-91
2021/09/07 06:55:26;;;;;;;17.13;11.53;;;;;;;;;;5002679;23;20457;-88
2021/09/07 06:57:54;;;;;;;15.90;10.70;;;;;;;;;;4962733;28;20447;-88
2021/09/07 07:00:22;;;;;;;20.53;11.33;;;;;;;;;;4963523;28;20451;-90
2021/09/07 07:02:49;;;;;;;20.73;10.63;;;;;;;;;;4966770;28;20459;-89
2021/09/07 07:05:16;;;;;;;18.10;11.80;;;;;;;;;;4962621;29;20423;-87
2021/09/07 07:07:44;;;;;;;17.17;11.47;;;;;;;;;;4966142;28;20454;-87
2021/09/07 07:10:13;;;;;;;21.57;11.47;;;;;;;;;;4962889;29;20456;-93
2021/09/07 07:12:41;;;;;;;21.53;10.47;;;;;;;;;;4961954;29;20499;-88
2021/09/07 07:15:09;;;;;;;23.17;11.50;;;19.20;99.90;;;;;;4969907;28;20463;-87
2021/09/07 07:17:36;;;;;;;16.17;10.80;;;;;;;;;;4965300;29;20440;-90
2021/09/07 07:20:04;;;;;;;15.73;9.63;;;;;;;;;;4971205;28;20465;-89
2021/09/07 07:22:31;;;;;;;16.10;11.10;;;;;;;;;;4963438;28;20974;-90
2021/09/07 07:24:58;;;;;;;17.60;10.30;;;;;;;;;;4962064;29;20465;-94
2021/09/07 07:27:26;;;;;;;17.03;11.10;;;20.50;99.90;;;;;;4966478;28;20440;-92
2021/09/07 07:29:53;;;;;;;12.77;9.07;;;;;;;;;;4977912;23;20478;-91
2021/09/07 07:34:48;;;;;;;17.70;10.70;;;21.00;99.90;;;;;;5000430;23;20585;-89
2021/09/07 07:37:15;;;;;;;17.43;10.40;;;;;;;;;;4990085;28;20202;-88
2021/09/07 07:39:42;;;;;;;24.00;10.30;;;;;;;;;;4995095;28;20450;-94
2021/09/07 07:42:09;;;;;;;27.97;11.80;;;20.40;99.90;;;;;;4985524;28;20477;-93
2021/09/07 07:44:37;;;;;;;19.67;10.67;;;20.60;99.90;;;;;;4983251;28;20454;-91
2021/09/07 07:47:05;;;;;;;17.03;10.60;;;;;;;;;;4989819;28;20451;-84
2021/09/07 07:49:32;;;;;;;18.13;10.10;;;;;;;;;;4989913;28;20810;-88
2021/09/07 07:51:59;;;;;;;13.10;10.27;;;;;;;;;;4982414;28;20445;-87
2021/09/07 07:54:27;;;;;;;13.57;9.77;;;;;;;;;;4982045;28;20465;-89
2021/09/07 07:56:55;;;;;;;13.63;9.40;;;;;;;;;;4979958;28;20449;-95
2021/09/07 07:59:22;;;;;;;10.43;9.43;;;;;;;;;;4979864;28;20509;-87
2021/09/07 08:01:52;;;;;;;13.63;9.60;;;;;;;;;;4979354;28;20446;-89
2021/09/07 08:04:21;;;;;;;16.53;9.80;;;22.50;99.90;;;;;;4978619;28;20450;-89
2021/09/07 08:06:48;;;;;;;18.20;11.00;;;;;;;;;;4984432;28;20803;-89
2021/09/07 08:09:16;;;;;;;10.60;8.73;;;23.80;99.90;;;;;;4994034;23;21000;-89
2021/09/07 08:11:43;;;;;;;9.17;8.27;;;;;;;;;;4982148;28;20438;-86
2021/09/07 08:14:12;;;;;;;12.60;7.47;;;;;;;;;;4991394;28;20512;-86
2021/09/07 08:16:39;;;;;;;9.87;8.60;;;;;;;;;;4987635;23;20498;-86
2021/09/07 08:19:07;;;;;;;18.63;9.40;;;23.30;99.10;;;;;;4974255;28;20485;-87
2021/09/07 08:21:35;;;;;;;8.87;8.10;;;;;;;;;;4970563;28;20459;-87
2021/09/07 08:24:02;;;;;;;10.93;9.17;;;;;;;;;;4966834;28;21016;-87
2021/09/07 08:26:29;;;;;;;10.10;8.80;;;;;;;;;;4973296;28;20935;-88
2021/09/07 08:28:57;;;;;;;9.20;8.30;;;;;;;;;;4957303;29;20461;-87
2021/09/07 08:31:24;;;;;;;9.37;8.23;;;;;;;;;;4965008;28;20447;-86
2021/09/07 08:33:51;;;;;;;7.70;7.10;;;;;;;;;;4970459;28;20517;-85
2021/09/07 08:36:19;;;;;;;8.37;7.60;;;24.10;99.90;;;;;;4979629;28;20969;-87
2021/09/07 08:38:46;;;;;;;8.43;7.43;;;;;;;;;;4972109;28;20456;-89
2021/09/07 08:41:16;;;;;;;10.00;7.20;;;25.40;95.50;;;;;;4971228;28;20513;-90
2021/09/07 08:43:49;;;;;;;10.47;8.33;;;25.40;94.10;;;;;;4974739;28;20450;-96
2021/09/07 08:46:16;;;;;;;7.93;6.50;;;;;;;;;;4967674;28;20463;-88
2021/09/07 08:48:44;;;;;;;8.30;7.47;;;25.80;91.00;;;;;;4957291;29;20451;-92
2021/09/07 08:51:12;;;;;;;8.00;7.20;;;;;;;;;;4956648;28;20467;-86
2021/09/07 08:53:40;;;;;;;10.63;6.90;;;25.90;91.70;;;;;;4961810;28;20493;-87
2021/09/07 08:56:08;;;;;;;7.73;7.00;;;;;;;;;;4980094;28;20469;-89
2021/09/07 08:58:35;;;;;;;9.13;8.07;;;;;;;;;;4978419;28;20450;-87
2021/09/07 09:01:11;;;;;;;8.10;7.40;;;23.80;95.60;;;;;;4992498;28;20475;-90
2021/09/07 09:03:41;;;;;;;9.47;7.57;;;23.50;95.20;;;;;;5007204;23;20823;-92
2021/09/07 09:06:09;;;;;;;8.40;7.60;;;;;;;;;;4996313;28;20531;-93
2021/09/07 09:08:36;;;;;;;7.60;6.97;;;;;;;;;;4985855;28;20465;-84
2021/09/07 09:11:07;;;;;;;7.43;6.73;;;25.70;91.50;;;;;;4994449;28;20847;-84
2021/09/07 09:13:45;;;;;;;7.80;7.00;;;25.30;91.40;;;;;;4992551;28;20493;-87
2021/09/07 09:16:13;;;;;;;8.23;7.43;;;;;;;;;;4993683;28;20444;-84
2021/09/07 09:18:42;;;;;;;7.90;7.17;;;24.70;93.30;;;;;;4993496;28;20476;-84
2021/09/07 09:21:23;;;;;;;7.83;7.03;;;24.70;90.70;;;;;;4993282;28;20464;-86
2021/09/07 09:24:13;;;;;;;7.37;6.67;;;25.50;91.90;;;;;;4993528;28;20519;-84
2021/09/07 09:27:09;;;;;;;7.20;6.50;;;25.90;91.60;;;;;;4974037;28;20455;-84
2021/09/07 09:29:37;;;;;;;7.83;7.23;;;26.10;87.90;;;;;;4949939;28;20469;-84
2021/09/07 09:32:06;;;;;;;8.57;7.77;;;26.80;87.90;;;;;;4973407;28;20447;-83
2021/09/07 09:34:35;;;;;;;7.87;7.17;;;26.70;87.80;;;;;;4974081;28;20972;-84
2021/09/07 09:37:04;;;;;;;7.60;7.00;;;26.10;89.30;;;;;;4991710;28;20449;-85
2021/09/07 09:39:39;;;;;;;9.93;6.73;;;27.00;89.00;;;;;;4993486;28;20970;-91
2021/09/07 09:42:06;;;;;;;8.13;7.33;;;;;;;;;;5017015;23;20520;-88
2021/09/07 09:44:35;;;;;;;8.90;7.10;;;25.60;89.70;;;;;;4992860;28;20461;-84
2021/09/07 09:47:03;;;;;;;8.50;7.60;;;;;;;;;;4993591;28;20449;-86
2021/09/07 09:49:30;;;;;;;14.17;7.30;;;;;;;;;;4993663;28;20456;-86
2021/09/07 09:52:02;;;;;;;8.87;7.87;;;27.80;88.80;;;;;;4993415;28;20460;-87
2021/09/07 09:54:31;;;;;;;8.37;7.57;;;26.50;84.10;;;;;;4993051;28;20492;-86
2021/09/07 09:56:59;;;;;;;10.00;7.70;;;;;;;;;;4993748;28;20437;-85
2021/09/07 09:59:28;;;;;;;12.37;8.50;;;;;;;;;;4993606;28;20956;-85
2021/09/07 10:01:57;;;;;;;8.17;7.40;;;27.40;83.50;;;;;;4995450;28;20450;-88
2021/09/07 10:04:25;;;;;;;8.30;7.60;;;;;;;;;;4993398;28;20449;-88
2021/09/07 10:06:53;;;;;;;9.23;7.80;;;;;;;;;;4995149;28;20520;-87
2021/09/07 10:09:22;;;;;;;12.17;7.13;;;27.60;83.40;;;;;;4994494;28;20472;-87
2021/09/07 10:11:52;;;;;;;8.43;7.60;;;27.80;85.10;;;;;;4994550;28;20460;-86
2021/09/07 10:14:25;;;;;;;8.43;7.60;;;26.60;82.00;;;;;;4992948;28;20504;-87
2021/09/07 10:17:27;;;;;;;8.13;7.10;;;27.40;82.20;;;;;;4997478;28;20450;-89
2021/09/07 10:23:14;;;;;;;8.13;7.33;;;27.90;79.00;;;;;;4971979;28;20521;-88
2021/09/07 10:25:54;;;;;;;7.70;7.00;;;26.80;81.00;;;;;;4976225;28;20808;-90
2021/09/07 10:28:36;;;;;;;7.83;7.03;;;27.50;99.90;;;;;;4974807;28;20454;-87
2021/09/07 10:31:09;;;;;;;8.23;7.00;;;27.50;80.70;;;;;;4976050;28;20450;-86
2021/09/07 10:33:39;;;;;;;10.40;7.73;;;27.60;79.10;;;;;;4972553;28;21026;-87
2021/09/07 10:36:12;;;;;;;9.50;8.00;;;28.30;78.60;;;;;;4975646;28;20454;-86
2021/09/07 10:38:41;;;;;;;8.57;7.50;;;28.00;77.30;;;;;;4974463;28;20454;-87
2021/09/07 10:41:15;;;;;;;8.67;7.87;;;;;;;;;;4975645;28;20442;-87
2021/09/07 10:43:53;;;;;;;10.43;7.63;;;28.40;76.80;;;;;;4936045;29;20478;-90
2021/09/07 10:46:41;;;;;;;7.07;6.47;;;27.80;77.70;;;;;;4908016;29;20459;-86
2021/09/07 10:49:24;;;;;;;9.93;7.80;;;27.00;78.50;;;;;;4939905;29;20555;-87
2021/09/07 10:52:09;;;;;;;8.63;7.83;;;27.90;75.40;;;;;;4940083;29;20462;-89
2021/09/07 10:54:42;;;;;;;8.47;7.67;;;27.70;74.90;;;;;;4940863;29;20503;-87
2021/09/07 10:57:09;;;;;;;7.53;6.80;;;;;;;;;;4938020;29;20451;-88
2021/09/07 10:59:46;;;;;;;8.70;7.90;;;28.00;73.60;;;;;;4937867;29;20459;-88
2021/09/07 11:02:35;;;;;;;13.50;8.00;;;27.70;75.80;;;;;;4936928;29;20451;-86
2021/09/07 11:05:04;;;;;;;8.30;7.50;;;27.50;77.40;;;;;;4939000;29;20479;-88
2021/09/07 11:07:40;;;;;;;8.80;7.97;;;27.50;76.70;;;;;;4948906;28;20612;-87
2021/09/07 11:10:23;;;;;;;6.80;6.20;;;27.90;73.60;;;;;;4998913;28;20445;-88
2021/09/07 11:12:52;;;;;;;8.70;7.83;;;27.40;75.60;;;;;;4999950;28;20445;-88
2021/09/07 11:15:21;;;;;;;7.50;6.80;;;27.90;80.30;;;;;;4997797;28;20500;-86
2021/09/07 11:17:51;;;;;;;8.00;7.07;;;28.30;71.50;;;;;;5003172;28;20979;-92
2021/09/07 11:20:30;;;;;;;8.60;7.83;;;28.40;71.40;;;;;;5005249;28;20450;-85
2021/09/07 11:22:59;;;;;;;8.57;7.30;;;;;;;;;;5001122;28;20444;-87
2021/09/07 11:25:28;;;;;;;12.30;7.97;;;;;;;;;;5000318;28;20449;-90
2021/09/07 11:27:58;;;;;;;14.73;6.90;;;28.10;72.80;;;;;;4997823;28;20441;-88
2021/09/07 11:30:36;;;;;;;7.13;6.50;;;27.00;73.50;;;;;;4996864;28;20960;-88
2021/09/07 11:33:07;;;;;;;7.87;7.17;;;27.50;74.90;;;;;;4997002;28;20575;-87
2021/09/07 11:35:39;;;;;;;7.53;6.80;;;27.60;71.50;;;;;;4997195;28;20496;-88
2021/09/07 11:38:07;;;;;;;6.90;6.30;;;27.50;70.50;;;;;;4997373;28;20785;-88
2021/09/07 11:40:36;;;;;;;7.67;6.93;;;27.20;72.20;;;;;;4997072;28;20456;-89
2021/09/07 11:43:03;;;;;;;7.53;6.93;;;;;;;;;;4995212;28;20661;-87
2021/09/07 11:45:32;;;;;;;11.10;7.60;;;27.00;73.40;;;;;;4993786;28;20507;-87
2021/09/07 11:48:00;;;;;;;8.97;8.17;;;27.00;72.00;;;;;;4997666;28;20441;-92
2021/09/07 11:50:29;;;;;;;14.00;6.80;;;27.00;74.30;;;;;;4999284;28;20453;-91
2021/09/07 11:53:02;;;;;;;7.50;6.80;;;26.70;71.10;;;;;;5001648;28;20938;-89
2021/09/07 11:55:44;;;;;;;8.70;6.60;;;26.80;72.50;;;;;;4997543;28;20496;-90
2021/09/07 11:58:27;;;;;;;7.03;6.33;;;27.10;71.60;;;;;;4993992;28;20462;-91
2021/09/07 12:01:02;;;;;;;8.10;7.03;;;27.30;73.20;;;;;;4995593;28;20437;-90
2021/09/07 12:03:38;;;;;;;8.63;7.00;;;27.50;72.20;;;;;;4994524;28;20449;-89
2021/09/07 12:06:05;;;;;;;13.33;7.00;;;;;;;;;;4994036;28;20457;-91
2021/09/07 12:08:39;;;;;;;7.30;6.40;;;27.40;71.60;;;;;;4998378;28;20449;-92
2021/09/07 12:11:08;;;;;;;10.30;6.60;;;26.70;71.90;;;;;;4997092;28;20511;-87
2021/09/07 12:13:36;;;;;;;7.50;6.63;;;;;;;;;;4998381;28;20534;-86
2021/09/07 12:16:04;;;;;;;7.10;6.40;;;27.00;72.00;;;;;;4991334;28;20456;-91
2021/09/07 12:18:37;;;;;;;7.47;6.77;;;27.50;72.90;;;;;;4978066;28;21008;-88
2021/09/07 12:21:17;;;;;;;8.63;7.00;;;27.90;80.70;;;;;;4980479;28;20924;-88
2021/09/07 12:23:47;;;;;;;8.70;6.60;;;27.80;77.90;;;;;;4983797;28;20446;-89
2021/09/07 12:26:15;;;;;;;9.03;6.80;;;;;;;;;;4976696;28;20458;-87
2021/09/07 12:28:43;;;;;;;7.40;6.70;;;27.60;69.00;;;;;;4978446;28;20922;-88
2021/09/07 12:31:18;;;;;;;9.50;6.43;;;27.40;69.40;;;;;;4987590;28;20447;-88
2021/09/07 12:33:54;;;;;;;9.23;7.27;;;26.80;70.90;;;;;;5000468;28;20466;-91
2021/09/07 12:36:22;;;;;;;8.00;7.20;;;27.10;72.30;;;;;;4989658;28;20450;-88
2021/09/07 12:38:52;;;;;;;8.07;7.27;;;27.10;70.90;;;;;;4983762;28;20446;-89
2021/09/07 12:41:22;;;;;;;7.83;6.57;;;26.50;69.80;;;;;;4978672;28;20486;-88
2021/09/07 12:43:53;;;;;;;8.50;7.10;;;26.10;70.00;;;;;;4977279;28;20447;-90
2021/09/07 12:46:21;;;;;;;11.87;6.87;;;26.70;71.80;;;;;;4977429;28;20509;-89
2021/09/07 12:48:50;;;;;;;7.13;6.33;;;26.60;70.90;;;;;;4974222;28;20458;-89
2021/09/07 12:51:20;;;;;;;9.17;8.27;;;26.90;71.00;;;;;;4983136;28;20450;-88
2021/09/07 12:53:47;;;;;;;13.20;7.87;;;;;;;;;;4982568;28;20853;-88
2021/09/07 12:56:17;;;;;;;10.40;7.30;;;26.50;73.10;;;;;;4977783;28;20858;-87
2021/09/07 12:58:51;;;;;;;7.63;6.93;;;26.90;71.60;;;;;;4979459;28;20461;-89
2021/09/07 13:01:19;;;;;;;10.23;6.80;;;27.20;74.70;;;;;;4982481;28;20454;-87
2021/09/07 13:03:50;;;;;;;6.60;6.00;;;;;;;;;;4982583;28;20529;-88
2021/09/07 13:06:19;;;;;;;7.70;7.00;;;26.90;71.60;;;;;;4979014;28;20438;-87
2021/09/07 13:08:49;;;;;;;8.30;7.37;;;;;;;;;;4983355;28;20786;-89
2021/09/07 13:11:19;;;;;;;7.83;7.03;;;26.90;71.40;;;;;;5074179;23;20553;-91
2021/09/07 13:13:46;;;;;;;7.27;6.53;;;;;;;;;;4981012;28;20465;-89
2021/09/07 13:16:14;;;;;;;7.93;7.23;;;;;;;;;;4980419;28;20845;-92
2021/09/07 13:18:41;;;;;;;9.33;7.30;;;;;;;;;;4976639;28;20458;-91
2021/09/07 13:21:12;;;;;;;7.30;6.60;;;27.00;72.50;;;;;;4976739;28;20810;-89
2021/09/07 13:23:39;;;;;;;9.57;6.57;;;;;;;;;;4977008;28;20454;-90
2021/09/07 13:26:06;;;;;;;13.07;7.20;;;;;;;;;;4976729;28;20450;-89
2021/09/07 13:28:35;;;;;;;6.83;6.13;;;27.00;72.40;;;;;;4975170;28;20450;-86
2021/09/07 13:31:02;;;;;;;12.70;7.47;;;;;;;;;;4976421;28;20458;-90
2021/09/07 13:33:29;;;;;;;8.93;7.90;;;;;;;;;;4976462;28;20461;-87
2021/09/07 13:35:57;;;;;;;7.53;6.50;;;;;;;;;;4975844;28;20909;-87
2021/09/07 13:38:25;;;;;;;8.80;7.40;;;;;;;;;;4975783;28;20450;-88
2021/09/07 13:40:52;;;;;;;8.03;7.23;;;;;;;;;;4975733;28;20450;-93
2021/09/07 13:43:19;;;;;;;8.30;6.77;;;;;;;;;;4975392;28;20461;-88
2021/09/07 13:45:47;;;;;;;6.50;6.00;;;26.40;74.00;;;;;;4976352;28;20454;-87
2021/09/07 13:48:14;;;;;;;9.40;7.57;;;;;;;;;;4970344;28;20454;-85
2021/09/07 13:50:42;;;;;;;7.00;6.37;;;;;;;;;;4960895;28;20462;-87
2021/09/07 13:53:09;;;;;;;17.77;7.43;;;;;;;;;;4956904;28;20455;-86
2021/09/07 13:55:36;;;;;;;7.80;7.10;;;;;;;;;;4975019;28;20934;-86
2021/09/07 13:58:03;;;;;;;7.93;7.13;;;;;;;;;;4974009;28;20452;-85
2021/09/07 14:00:30;;;;;;;6.60;6.00;;;;;;;;;;4977574;28;20864;-87
2021/09/07 14:03:00;;;;;;;9.90;7.67;;;27.00;70.60;;;;;;4979555;28;20458;-93
2021/09/07 14:05:27;;;;;;;8.60;7.13;;;;;;;;;;4954037;28;20466;-90
2021/09/07 14:07:55;;;;;;;14.57;6.40;;;;;;;;;;4954339;28;20462;-89